Time;durP1;ratioP1;P1;durP2;ratioP2;P2;SDS_P1;SDS_P2;PMS_P1;PMS_P2;Temp;Humidity;BMP_temperature;BMP_pressure;BME280_temperature;BME280_humidity;BME280_pressure;Samples;Min_cycle;Max_cycle;Signal;HPM_P1;HPM_P2
2022/01/11 00:00:22;;;;;;;18.13;10.95;;;5.00;81.30;;;;;;5011905;28;20201;-75
2022/01/11 00:02:52;;;;;;;20.77;12.18;;;5.00;81.30;;;;;;4993429;28;20264;-75
2022/01/11 00:05:24;;;;;;;21.95;12.95;;;5.00;81.30;;;;;;4998984;28;20200;-75
2022/01/11 00:07:53;;;;;;;22.45;13.70;;;5.00;81.20;;;;;;5012702;28;20306;-75
2022/01/11 00:10:27;;;;;;;23.45;13.43;;;5.00;81.20;;;;;;5016788;28;20216;-75
2022/01/11 00:12:57;;;;;;;18.25;12.23;;;5.00;81.30;;;;;;5015132;28;20204;-75
2022/01/11 00:15:25;;;;;;;22.48;13.10;;;5.00;81.30;;;;;;5012075;28;20303;-75
2022/01/11 00:17:53;;;;;;;23.98;14.93;;;5.00;81.20;;;;;;5011578;28;20280;-75
2022/01/11 00:20:21;;;;;;;25.83;13.98;;;4.90;81.30;;;;;;5010655;28;20202;-75
2022/01/11 00:24:27;;;;;;;27.00;12.73;;;4.90;81.30;;;;;;5013245;28;20254;-75
2022/01/11 00:25:46;;;;;;;22.60;12.95;;;5.00;81.30;;;;;;5012395;28;20719;-75
2022/01/11 00:28:18;;;;;;;23.90;12.48;;;5.00;81.30;;;;;;5011670;28;20205;-75
2022/01/11 00:30:57;;;;;;;20.13;12.55;;;5.00;81.30;;;;;;4994319;28;20216;-75
2022/01/11 00:33:29;;;;;;;19.10;11.98;;;5.00;81.30;;;;;;5009674;28;20197;-75
2022/01/11 00:36:00;;;;;;;24.35;13.20;;;4.90;81.30;;;;;;5014816;28;20209;-75
2022/01/11 00:38:30;;;;;;;35.28;16.63;;;5.00;81.30;;;;;;4996274;28;20208;-75
2022/01/11 00:40:59;;;;;;;33.53;16.65;;;4.90;81.30;;;;;;5001931;28;20558;-75
2022/01/11 00:43:30;;;;;;;24.58;15.20;;;4.90;81.20;;;;;;5010905;28;20201;-75
2022/01/11 00:45:59;;;;;;;27.90;17.92;;;4.90;81.30;;;;;;5011355;28;20244;-75
2022/01/11 00:48:27;;;;;;;30.42;17.85;;;4.90;81.30;;;;;;5015036;28;20197;-75
2022/01/11 00:50:56;;;;;;;27.10;16.95;;;4.90;81.30;;;;;;5000699;28;20911;-75
2022/01/11 00:53:24;;;;;;;26.65;17.10;;;4.90;81.40;;;;;;5015138;28;20209;-75
2022/01/11 00:55:52;;;;;;;24.23;15.52;;;4.90;81.40;;;;;;5015333;28;20210;-74
2022/01/11 00:58:21;;;;;;;28.02;17.13;;;4.90;81.40;;;;;;5014780;28;20201;-75
2022/01/11 01:00:50;;;;;;;26.63;17.50;;;4.90;81.40;;;;;;5016982;28;20204;-75
2022/01/11 01:03:20;;;;;;;27.25;17.08;;;4.90;81.40;;;;;;5009503;28;20196;-75
2022/01/11 01:05:48;;;;;;;25.70;16.40;;;4.90;81.40;;;;;;5013415;28;20199;-75
2022/01/11 01:08:18;;;;;;;25.50;17.02;;;4.90;81.40;;;;;;4992210;28;20205;-74
2022/01/11 01:10:47;;;;;;;31.08;20.17;;;4.90;81.40;;;;;;5002674;28;20197;-75
2022/01/11 01:13:20;;;;;;;36.78;20.92;;;4.90;81.40;;;;;;5012919;28;20871;-75
2022/01/11 01:15:55;;;;;;;29.15;19.40;;;4.90;81.40;;;;;;4994953;28;20212;-75
2022/01/11 01:18:36;;;;;;;27.30;16.35;;;4.90;81.40;;;;;;5001473;28;20209;-76
2022/01/11 01:21:04;;;;;;;25.35;17.23;;;4.90;81.40;;;;;;5014156;28;20232;-75
2022/01/11 01:23:33;;;;;;;27.67;17.35;;;4.90;81.40;;;;;;4999096;28;20205;-75
2022/01/11 01:26:01;;;;;;;27.35;17.48;;;4.90;81.60;;;;;;5013916;28;20333;-75
2022/01/11 01:28:30;;;;;;;33.25;17.35;;;4.90;81.60;;;;;;4995755;28;20571;-75
2022/01/11 01:31:01;;;;;;;27.40;17.85;;;4.90;81.60;;;;;;4997653;28;20233;-75
2022/01/11 01:33:30;;;;;;;33.33;18.48;;;4.90;81.60;;;;;;5008920;28;20659;-75
2022/01/11 01:36:01;;;;;;;30.20;18.02;;;4.90;81.60;;;;;;5013915;28;20205;-74
2022/01/11 01:38:31;;;;;;;30.90;19.75;;;4.90;81.60;;;;;;5015208;28;20213;-74
2022/01/11 01:41:07;;;;;;;28.60;18.60;;;4.90;81.60;;;;;;4994418;28;20320;-75
2022/01/11 01:43:35;;;;;;;26.50;18.15;;;4.90;81.60;;;;;;5011336;28;20801;-75
2022/01/11 01:46:05;;;;;;;26.65;17.25;;;4.90;81.60;;;;;;5015276;28;20185;-74
2022/01/11 01:48:35;;;;;;;30.00;18.40;;;4.90;81.60;;;;;;5004633;28;20201;-75
2022/01/11 01:51:05;;;;;;;28.35;17.92;;;4.90;81.60;;;;;;5012218;28;20683;-75
2022/01/11 01:53:33;;;;;;;25.83;17.85;;;4.90;81.60;;;;;;5020335;28;20197;-75
2022/01/11 01:56:02;;;;;;;23.42;16.00;;;4.90;81.60;;;;;;5004677;28;20695;-75
2022/01/11 01:58:30;;;;;;;28.02;17.20;;;4.90;81.60;;;;;;5016461;28;20226;-74
2022/01/11 02:01:03;;;;;;;23.25;15.55;;;4.90;81.70;;;;;;4999256;28;20205;-75
2022/01/11 02:03:38;;;;;;;21.27;15.93;;;4.90;81.70;;;;;;5004872;28;20210;-73
2022/01/11 02:06:08;;;;;;;22.30;15.10;;;4.90;81.70;;;;;;4999087;28;20572;-74
2022/01/11 02:08:36;;;;;;;21.70;15.05;;;4.90;81.70;;;;;;5019289;28;20279;-74
2022/01/11 02:11:04;;;;;;;20.52;13.85;;;4.90;81.70;;;;;;5014421;28;20194;-74
2022/01/11 02:13:33;;;;;;;22.70;16.23;;;4.90;81.70;;;;;;5016159;28;20206;-74
2022/01/11 02:16:04;;;;;;;23.38;16.27;;;4.90;81.70;;;;;;4999682;28;20225;-74
2022/01/11 02:18:35;;;;;;;27.98;18.50;;;4.90;81.70;;;;;;4997467;28;20206;-74
2022/01/11 02:21:09;;;;;;;24.33;17.05;;;4.90;81.80;;;;;;5002682;28;20792;-73
2022/01/11 02:23:39;;;;;;;25.92;17.85;;;4.90;81.70;;;;;;4999013;28;20225;-73
2022/01/11 02:26:08;;;;;;;27.88;18.33;;;4.90;81.80;;;;;;5003291;28;20233;-73
2022/01/11 02:28:37;;;;;;;32.40;21.23;;;4.90;81.80;;;;;;4999744;28;20611;-73
2022/01/11 02:31:12;;;;;;;31.10;20.80;;;4.90;81.70;;;;;;5001767;28;20212;-73
2022/01/11 02:33:46;;;;;;;25.45;18.10;;;4.90;81.80;;;;;;4993650;28;20209;-73
2022/01/11 02:36:31;;;;;;;27.45;18.10;;;4.90;81.80;;;;;;5001501;28;20221;-73
2022/01/11 02:39:11;;;;;;;28.30;18.98;;;4.90;81.80;;;;;;5004759;28;20641;-73
2022/01/11 02:41:50;;;;;;;26.20;18.08;;;4.90;81.80;;;;;;5016437;28;20213;-73
2022/01/11 02:44:23;;;;;;;26.02;17.80;;;4.90;81.90;;;;;;4996087;28;20921;-73
2022/01/11 02:46:51;;;;;;;28.77;18.73;;;4.90;81.80;;;;;;4999286;28;20221;-73
2022/01/11 02:49:21;;;;;;;33.03;20.30;;;4.90;81.80;;;;;;5002527;28;20287;-73
2022/01/11 02:51:56;;;;;;;28.45;20.00;;;4.90;81.80;;;;;;4994996;28;20202;-73
2022/01/11 02:54:25;;;;;;;33.00;20.98;;;4.90;81.90;;;;;;5017347;28;20209;-73
2022/01/11 02:57:05;;;;;;;29.73;19.35;;;4.90;81.90;;;;;;5000955;28;20220;-73
2022/01/11 02:59:33;;;;;;;27.35;18.65;;;4.90;81.90;;;;;;4998477;28;20266;-73
2022/01/11 03:02:01;;;;;;;27.95;19.45;;;4.90;81.90;;;;;;4994738;28;20920;-73
2022/01/11 03:04:32;;;;;;;29.13;19.95;;;4.90;81.90;;;;;;4999520;28;20197;-73
2022/01/11 03:07:02;;;;;;;29.17;20.00;;;4.90;81.90;;;;;;5004343;28;20232;-73
2022/01/11 03:09:49;;;;;;;29.63;20.08;;;4.90;81.90;;;;;;4996041;28;20212;-73
2022/01/11 03:12:17;;;;;;;27.30;18.45;;;4.90;81.90;;;;;;4997093;28;20208;-73
2022/01/11 03:14:46;;;;;;;27.88;18.88;;;4.90;81.90;;;;;;5011607;28;20204;-73
2022/01/11 03:17:14;;;;;;;27.58;18.23;;;4.90;81.90;;;;;;4994026;28;20457;-74
2022/01/11 03:19:41;;;;;;;25.05;17.20;;;4.90;81.90;;;;;;4995840;28;20304;-74
2022/01/11 03:22:11;;;;;;;21.83;14.63;;;4.90;82.00;;;;;;5003798;28;20288;-74
2022/01/11 03:24:39;;;;;;;22.60;16.00;;;4.90;82.00;;;;;;5001071;28;20231;-74
2022/01/11 03:27:08;;;;;;;21.08;14.98;;;4.90;82.00;;;;;;4995902;28;20221;-74
2022/01/11 03:29:37;;;;;;;24.80;15.35;;;4.90;82.00;;;;;;4999463;28;20742;-73
2022/01/11 03:32:07;;;;;;;25.48;17.65;;;4.90;82.00;;;;;;5001733;28;20198;-74
2022/01/11 03:34:55;;;;;;;25.90;17.45;;;4.90;82.00;;;;;;4995585;28;20208;-74
2022/01/11 03:37:25;;;;;;;26.13;17.42;;;4.90;82.00;;;;;;4996967;28;20233;-74
2022/01/11 03:39:53;;;;;;;24.60;17.70;;;4.90;82.00;;;;;;4995312;28;20201;-74
2022/01/11 03:42:21;;;;;;;27.85;17.42;;;4.90;82.00;;;;;;4997673;28;20217;-74
2022/01/11 03:44:50;;;;;;;26.15;17.73;;;4.90;82.00;;;;;;4996695;28;20194;-74
2022/01/11 03:47:19;;;;;;;29.50;19.02;;;4.90;82.00;;;;;;5007955;28;20223;-74
2022/01/11 03:49:47;;;;;;;26.55;18.80;;;4.90;82.00;;;;;;5014444;28;20210;-74
2022/01/11 03:52:15;;;;;;;23.20;16.60;;;4.90;82.00;;;;;;5010408;28;20588;-74
2022/01/11 03:55:01;;;;;;;27.02;17.15;;;4.90;82.10;;;;;;5017217;28;20292;-74
2022/01/11 03:57:37;;;;;;;25.00;15.80;;;4.90;82.10;;;;;;5012270;28;20221;-74
2022/01/11 04:00:09;;;;;;;24.10;17.10;;;4.90;82.10;;;;;;4999982;28;20579;-74
2022/01/11 04:02:40;;;;;;;26.48;16.75;;;4.90;82.10;;;;;;5014358;28;20307;-74
2022/01/11 04:05:13;;;;;;;26.17;17.90;;;4.90;82.10;;;;;;5014353;28;20205;-74
2022/01/11 04:07:41;;;;;;;31.80;19.77;;;4.90;82.10;;;;;;5001999;28;20738;-74
2022/01/11 04:10:13;;;;;;;28.05;18.38;;;4.90;82.10;;;;;;5009566;28;20296;-74
2022/01/11 04:12:41;;;;;;;27.77;18.20;;;4.90;82.00;;;;;;4996425;28;20297;-74
2022/01/11 04:15:10;;;;;;;30.60;19.17;;;4.90;82.10;;;;;;5000883;28;20233;-74
2022/01/11 04:17:38;;;;;;;26.98;18.83;;;4.90;82.10;;;;;;5013859;28;21369;-74
2022/01/11 04:20:08;;;;;;;23.42;17.40;;;4.90;82.10;;;;;;5017268;28;20209;-74
2022/01/11 04:22:36;;;;;;;28.55;18.90;;;4.90;82.10;;;;;;4995908;28;20232;-74
2022/01/11 04:25:04;;;;;;;22.65;16.05;;;4.80;82.10;;;;;;5012364;28;20209;-74
2022/01/11 04:27:34;;;;;;;22.30;15.73;;;4.80;82.10;;;;;;4994138;28;20217;-74
2022/01/11 04:30:03;;;;;;;23.55;16.27;;;4.80;82.10;;;;;;5013429;28;20185;-73
2022/01/11 04:32:32;;;;;;;22.30;15.85;;;4.80;82.20;;;;;;5001575;28;20865;-74
2022/01/11 04:35:00;;;;;;;22.20;15.98;;;4.80;82.20;;;;;;5015397;28;20638;-75
2022/01/11 04:37:28;;;;;;;25.15;15.88;;;4.80;82.20;;;;;;5013171;28;20332;-75
2022/01/11 04:39:56;;;;;;;21.80;14.93;;;4.80;82.30;;;;;;5015025;28;20196;-75
2022/01/11 04:42:24;;;;;;;21.40;15.52;;;4.80;82.30;;;;;;5001247;28;20292;-75
2022/01/11 04:44:53;;;;;;;25.40;16.58;;;4.90;82.30;;;;;;5012233;28;20288;-75
2022/01/11 04:47:21;;;;;;;25.60;17.05;;;4.90;82.20;;;;;;5001380;28;20246;-74
2022/01/11 04:49:49;;;;;;;22.88;16.35;;;4.90;82.30;;;;;;5015948;28;20215;-74
2022/01/11 04:52:17;;;;;;;22.27;15.50;;;4.90;82.30;;;;;;5002830;28;20224;-75
2022/01/11 04:54:45;;;;;;;25.00;15.93;;;4.90;82.40;;;;;;5003366;28;20598;-74
2022/01/11 04:57:34;;;;;;;23.63;15.35;;;4.90;82.30;;;;;;4998104;28;20909;-73
2022/01/11 05:00:05;;;;;;;28.02;16.27;;;4.90;82.40;;;;;;5003246;28;20292;-75
2022/01/11 05:02:33;;;;;;;25.95;16.23;;;4.90;82.30;;;;;;5016640;28;20235;-75
2022/01/11 05:05:01;;;;;;;26.08;16.25;;;4.90;82.40;;;;;;4995585;28;20202;-74
2022/01/11 05:07:30;;;;;;;24.67;15.77;;;4.90;82.30;;;;;;5014248;28;20255;-74
2022/01/11 05:09:58;;;;;;;24.10;16.35;;;4.90;82.30;;;;;;5000070;28;20205;-74
2022/01/11 05:12:26;;;;;;;24.73;16.27;;;4.90;82.30;;;;;;5004492;28;20212;-74
2022/01/11 05:14:54;;;;;;;24.00;15.95;;;4.90;82.30;;;;;;5003124;28;20197;-74
2022/01/11 05:17:24;;;;;;;24.73;14.50;;;4.90;82.40;;;;;;4996963;28;20228;-74
2022/01/11 05:19:52;;;;;;;24.80;16.30;;;4.90;82.40;;;;;;5006800;28;20232;-74
2022/01/11 05:22:20;;;;;;;23.23;15.25;;;4.90;82.30;;;;;;5006200;28;20205;-75
2022/01/11 05:24:48;;;;;;;25.75;17.40;;;4.90;82.30;;;;;;5001996;28;20209;-74
2022/01/11 05:27:16;;;;;;;30.52;17.42;;;4.90;82.40;;;;;;5015251;28;20236;-74
2022/01/11 05:29:44;;;;;;;28.92;17.70;;;4.90;82.40;;;;;;5006473;28;20239;-74
2022/01/11 05:32:12;;;;;;;28.30;18.33;;;4.90;82.40;;;;;;5008507;28;20251;-74
2022/01/11 05:34:42;;;;;;;31.10;18.60;;;4.90;82.40;;;;;;5005454;28;20228;-74
2022/01/11 05:37:10;;;;;;;29.23;18.25;;;4.90;82.40;;;;;;5000196;28;20217;-74
2022/01/11 05:39:38;;;;;;;26.30;15.98;;;4.90;82.40;;;;;;5004400;28;20217;-74
2022/01/11 05:42:07;;;;;;;25.73;16.05;;;4.90;82.40;;;;;;5020026;28;20204;-73
2022/01/11 05:44:37;;;;;;;31.40;18.73;;;4.90;82.40;;;;;;5003432;28;20262;-73
2022/01/11 05:47:05;;;;;;;28.48;20.13;;;4.90;82.30;;;;;;5004282;28;20226;-73
2022/01/11 05:49:34;;;;;;;37.42;21.42;;;4.90;82.40;;;;;;5004919;28;20220;-73
2022/01/11 05:52:04;;;;;;;33.05;20.73;;;4.90;82.40;;;;;;5018836;28;20190;-73
2022/01/11 05:54:32;;;;;;;33.80;22.52;;;4.80;82.40;;;;;;5013407;28;20196;-73
2022/01/11 05:57:00;;;;;;;38.17;22.25;;;4.80;82.40;;;;;;5001841;28;20220;-73
2022/01/11 05:59:29;;;;;;;34.35;21.35;;;4.80;82.40;;;;;;5000254;28;20232;-73
2022/01/11 06:01:58;;;;;;;35.20;21.13;;;4.80;82.40;;;;;;5002932;28;20262;-73
2022/01/11 06:04:26;;;;;;;31.75;19.60;;;4.80;82.50;;;;;;5015109;28;21096;-73
2022/01/11 06:06:54;;;;;;;28.55;18.05;;;4.80;82.50;;;;;;5005443;28;20226;-72
2022/01/11 06:09:26;;;;;;;27.67;17.27;;;4.80;82.50;;;;;;4997723;28;20874;-73
2022/01/11 06:11:54;;;;;;;27.83;17.27;;;4.80;82.60;;;;;;5000634;28;20205;-73
2022/01/11 06:14:24;;;;;;;25.25;16.13;;;4.80;82.60;;;;;;5016572;28;20356;-73
2022/01/11 06:16:52;;;;;;;25.23;16.40;;;4.80;82.60;;;;;;5014359;28;20323;-73
2022/01/11 06:19:21;;;;;;;30.30;19.05;;;4.80;82.60;;;;;;5003925;28;20726;-73
2022/01/11 06:22:03;;;;;;;31.42;19.27;;;4.80;82.70;;;;;;4997645;28;20983;-73
2022/01/11 06:24:33;;;;;;;33.05;19.98;;;4.80;82.70;;;;;;5003897;28;20225;-73
2022/01/11 06:27:01;;;;;;;27.90;18.38;;;4.70;82.70;;;;;;5003918;28;20301;-73
2022/01/11 06:29:29;;;;;;;31.08;19.08;;;4.80;82.70;;;;;;5014797;28;20198;-73
2022/01/11 06:31:57;;;;;;;28.40;17.65;;;4.80;82.70;;;;;;5000196;28;20204;-73
2022/01/11 06:34:25;;;;;;;26.20;16.60;;;4.70;82.70;;;;;;4998888;28;20196;-73
2022/01/11 06:36:53;;;;;;;25.13;17.77;;;4.70;82.80;;;;;;5004872;28;20228;-73
2022/01/11 06:39:22;;;;;;;25.38;17.05;;;4.80;82.80;;;;;;5007725;28;20221;-73
2022/01/11 06:41:51;;;;;;;28.50;19.30;;;4.70;82.80;;;;;;5015212;28;20197;-73
2022/01/11 06:44:19;;;;;;;25.92;17.80;;;4.70;82.80;;;;;;5001051;28;20206;-73
2022/01/11 06:46:48;;;;;;;26.85;18.02;;;4.70;82.80;;;;;;5001039;28;20255;-73
2022/01/11 06:49:18;;;;;;;31.83;18.55;;;4.70;82.80;;;;;;5017349;28;20323;-73
2022/01/11 06:51:46;;;;;;;25.98;18.58;;;4.70;82.80;;;;;;5000622;28;20209;-73
2022/01/11 06:54:15;;;;;;;30.25;18.02;;;4.70;82.90;;;;;;5002525;28;20255;-73
2022/01/11 06:56:44;;;;;;;26.85;17.55;;;4.70;82.90;;;;;;5005610;28;20232;-73
2022/01/11 06:59:16;;;;;;;25.98;16.65;;;4.70;82.90;;;;;;4997086;28;20213;-73
2022/01/11 07:01:44;;;;;;;31.05;19.70;;;4.80;82.90;;;;;;5011169;28;20210;-73
2022/01/11 07:04:24;;;;;;;25.75;17.58;;;4.70;82.90;;;;;;4996691;28;20205;-73
2022/01/11 07:06:56;;;;;;;26.55;17.65;;;4.70;82.90;;;;;;5003343;28;20311;-74
2022/01/11 07:09:24;;;;;;;23.98;17.33;;;4.70;83.00;;;;;;5014565;28;20229;-74
2022/01/11 07:11:52;;;;;;;26.92;16.70;;;4.70;83.00;;;;;;5009282;28;20209;-74
2022/01/11 07:14:21;;;;;;;27.40;16.15;;;4.70;83.00;;;;;;5006118;28;20209;-74
2022/01/11 07:16:50;;;;;;;29.80;17.60;;;4.70;83.00;;;;;;5014498;28;20224;-74
2022/01/11 07:19:19;;;;;;;27.00;17.33;;;4.70;83.00;;;;;;4998367;28;20217;-74
2022/01/11 07:21:49;;;;;;;23.85;16.30;;;4.70;83.00;;;;;;5005538;28;20245;-74
2022/01/11 07:24:19;;;;;;;29.75;17.88;;;4.70;83.00;;;;;;5000204;28;20201;-75
2022/01/11 07:26:49;;;;;;;26.55;17.70;;;4.70;83.10;;;;;;5002235;28;20234;-74
2022/01/11 07:29:18;;;;;;;27.60;16.67;;;4.80;83.10;;;;;;5015018;28;20204;-74
2022/01/11 07:31:48;;;;;;;28.58;15.68;;;4.70;83.10;;;;;;4998091;28;20206;-74
2022/01/11 07:34:18;;;;;;;24.73;17.33;;;4.70;83.10;;;;;;5001312;28;20585;-74
2022/01/11 07:36:46;;;;;;;23.38;15.40;;;4.80;83.10;;;;;;5012531;28;20320;-74
2022/01/11 07:39:14;;;;;;;22.80;14.63;;;4.80;83.10;;;;;;4998674;28;20216;-74
2022/01/11 07:41:44;;;;;;;26.35;16.40;;;4.80;83.20;;;;;;5013254;28;20201;-74
2022/01/11 07:44:30;;;;;;;19.23;14.30;;;4.80;83.20;;;;;;5016224;28;20694;-74
2022/01/11 07:47:02;;;;;;;23.58;15.90;;;4.80;83.20;;;;;;4995297;28;20227;-75
2022/01/11 07:49:34;;;;;;;22.10;15.05;;;4.80;83.20;;;;;;5011667;28;20212;-75
2022/01/11 07:52:03;;;;;;;21.90;15.32;;;4.80;83.20;;;;;;5015455;28;20279;-74
2022/01/11 07:54:31;;;;;;;20.88;13.93;;;4.80;83.20;;;;;;4997464;28;20233;-74
2022/01/11 07:57:00;;;;;;;20.10;13.65;;;4.80;83.20;;;;;;4995200;28;20959;-73
2022/01/11 07:59:29;;;;;;;24.15;15.88;;;4.80;83.20;;;;;;5000324;28;20217;-75
2022/01/11 08:02:19;;;;;;;20.90;15.35;;;4.80;83.40;;;;;;4995808;28;20320;-74
2022/01/11 08:04:47;;;;;;;22.23;16.27;;;4.80;83.40;;;;;;5001819;28;20764;-74
2022/01/11 08:07:15;;;;;;;25.40;15.93;;;4.80;83.40;;;;;;5003314;28;20229;-74
2022/01/11 08:09:50;;;;;;;22.75;14.35;;;4.80;83.40;;;;;;5015314;28;20211;-74
2022/01/11 08:12:19;;;;;;;23.42;15.23;;;4.80;83.40;;;;;;5011194;28;20205;-74
2022/01/11 08:14:48;;;;;;;24.13;16.65;;;4.80;83.40;;;;;;5001453;28;20213;-74
2022/01/11 08:17:18;;;;;;;26.08;17.23;;;4.80;83.40;;;;;;5002600;28;20697;-74
2022/01/11 08:19:46;;;;;;;25.42;15.65;;;4.80;83.50;;;;;;5012961;28;20227;-74
2022/01/11 08:22:16;;;;;;;24.05;15.93;;;4.80;83.50;;;;;;4999403;28;20204;-74
2022/01/11 08:24:51;;;;;;;28.58;16.08;;;4.80;83.40;;;;;;5001770;28;20197;-75
2022/01/11 08:27:22;;;;;;;36.47;22.30;;;4.80;83.40;;;;;;5004914;28;20221;-74
2022/01/11 08:29:51;;;;;;;70.72;37.30;;;4.90;83.50;;;;;;4997414;28;20228;-74
2022/01/11 08:32:21;;;;;;;33.15;20.92;;;4.90;83.50;;;;;;4995356;28;20194;-74
2022/01/11 08:34:49;;;;;;;28.40;18.13;;;4.90;83.50;;;;;;4997008;28;20201;-74
2022/01/11 08:37:17;;;;;;;26.05;17.02;;;4.90;83.50;;;;;;5015162;28;20233;-74
2022/01/11 08:39:47;;;;;;;25.58;16.80;;;5.00;83.50;;;;;;5001460;28;20233;-74
2022/01/11 08:42:15;;;;;;;24.02;16.02;;;4.90;83.50;;;;;;4997645;28;20197;-75
2022/01/11 08:44:45;;;;;;;20.38;14.70;;;5.00;83.50;;;;;;4998401;28;20216;-74
2022/01/11 08:47:15;;;;;;;20.90;15.13;;;5.00;83.50;;;;;;4999557;28;20315;-74
2022/01/11 08:49:48;;;;;;;24.25;15.40;;;5.00;83.60;;;;;;5008229;28;20733;-74
2022/01/11 08:52:17;;;;;;;22.38;14.70;;;5.00;83.60;;;;;;4997362;28;20560;-74
2022/01/11 08:54:46;;;;;;;24.35;16.40;;;5.00;83.60;;;;;;5010585;28;20200;-73
2022/01/11 08:57:18;;;;;;;23.45;15.90;;;5.10;83.60;;;;;;5002886;28;20236;-74
2022/01/11 08:59:49;;;;;;;24.83;16.35;;;5.10;83.60;;;;;;5007619;28;20255;-74
2022/01/11 09:02:20;;;;;;;24.77;15.52;;;5.10;83.60;;;;;;5002102;28;20958;-74
2022/01/11 09:04:52;;;;;;;25.00;15.10;;;5.10;83.60;;;;;;5017590;28;20584;-74
2022/01/11 09:07:25;;;;;;;24.48;15.50;;;5.10;83.70;;;;;;5017902;28;20335;-74
2022/01/11 09:09:56;;;;;;;30.88;18.23;;;5.10;83.70;;;;;;5009205;28;20209;-74
2022/01/11 09:12:25;;;;;;;38.10;23.23;;;5.10;83.70;;;;;;5003515;28;20267;-74
2022/01/11 09:14:53;;;;;;;32.30;20.23;;;5.20;83.70;;;;;;5005673;28;20926;-73
2022/01/11 09:17:22;;;;;;;39.17;20.55;;;5.20;83.70;;;;;;5002296;28;20683;-74
2022/01/11 09:19:53;;;;;;;37.25;22.40;;;5.20;83.70;;;;;;5007289;28;20233;-74
2022/01/11 09:22:22;;;;;;;90.80;50.45;;;5.20;83.80;;;;;;5006181;28;20215;-74
2022/01/11 09:24:51;;;;;;;120.53;65.03;;;5.30;83.80;;;;;;5007801;28;20206;-74
2022/01/11 09:27:24;;;;;;;88.65;48.63;;;5.30;83.80;;;;;;5014677;28;20229;-74
2022/01/11 09:29:52;;;;;;;87.10;46.00;;;5.30;83.90;;;;;;4999048;28;20223;-74
2022/01/11 09:32:24;;;;;;;85.28;43.15;;;5.30;83.90;;;;;;5017948;28;20251;-74
2022/01/11 09:34:55;;;;;;;76.05;42.65;;;5.30;83.80;;;;;;5010032;28;20260;-74
2022/01/11 09:37:27;;;;;;;70.05;38.63;;;5.40;83.80;;;;;;4999233;28;20707;-74
2022/01/11 09:39:55;;;;;;;61.92;35.60;;;5.40;83.80;;;;;;5018962;28;20296;-74
2022/01/11 09:42:27;;;;;;;54.75;29.55;;;5.40;83.80;;;;;;4997034;28;20202;-74
2022/01/11 09:44:58;;;;;;;43.38;25.23;;;5.40;83.90;;;;;;5005019;28;20200;-74
2022/01/11 09:47:27;;;;;;;32.40;20.48;;;5.40;83.90;;;;;;5007197;28;20225;-74
2022/01/11 09:49:57;;;;;;;29.48;19.13;;;5.40;84.00;;;;;;5000959;28;20213;-74
2022/01/11 09:52:27;;;;;;;32.70;17.00;;;5.40;84.00;;;;;;5000142;28;20244;-74
2022/01/11 09:54:56;;;;;;;23.33;15.93;;;5.50;84.10;;;;;;5001839;28;20259;-74
2022/01/11 09:57:27;;;;;;;24.58;16.40;;;5.50;84.00;;;;;;4999463;28;20608;-74
2022/01/11 10:00:33;;;;;;;26.08;14.30;;;5.50;83.90;;;;;;5014133;28;20233;-74
2022/01/11 10:03:18;;;;;;;21.13;14.30;;;5.50;84.00;;;;;;5000529;28;20672;-74
2022/01/11 10:06:14;;;;;;;19.23;13.50;;;5.50;84.00;;;;;;4997740;28;20212;-74
2022/01/11 10:08:42;;;;;;;22.23;14.23;;;5.60;84.00;;;;;;5006312;28;20237;-74
2022/01/11 10:11:10;;;;;;;23.92;14.13;;;5.60;84.00;;;;;;4999434;28;20202;-74
2022/01/11 10:13:42;;;;;;;22.33;14.60;;;5.60;84.00;;;;;;5019413;28;20289;-74
2022/01/11 10:16:24;;;;;;;20.08;14.02;;;5.60;84.00;;;;;;5005245;28;20244;-74
2022/01/11 10:18:56;;;;;;;19.77;13.63;;;5.70;84.00;;;;;;5001554;28;20205;-74
2022/01/11 10:21:37;;;;;;;24.02;15.98;;;5.70;83.90;;;;;;5012895;28;20217;-74
2022/01/11 10:24:24;;;;;;;21.00;13.73;;;5.70;84.00;;;;;;5004784;28;20194;-74
2022/01/11 10:26:56;;;;;;;23.92;13.05;;;5.70;84.10;;;;;;4995639;28;20225;-74
2022/01/11 10:29:29;;;;;;;20.15;12.95;;;5.70;84.10;;;;;;5007763;28;20265;-74
2022/01/11 10:32:02;;;;;;;23.67;14.20;;;5.70;84.10;;;;;;5015434;28;20613;-75
2022/01/11 10:34:33;;;;;;;27.40;16.92;;;5.70;84.10;;;;;;4998754;28;20224;-74
2022/01/11 10:37:04;;;;;;;25.45;14.00;;;5.70;83.90;;;;;;4997524;28;20694;-74
2022/01/11 10:39:36;;;;;;;23.70;14.15;;;5.70;83.80;;;;;;4998431;28;20229;-74
2022/01/11 10:42:25;;;;;;;21.65;13.93;;;5.70;84.00;;;;;;4996598;28;20304;-74
2022/01/11 10:44:58;;;;;;;22.13;14.38;;;5.70;84.00;;;;;;5011181;28;20213;-74
2022/01/11 10:47:33;;;;;;;58.40;31.20;;;5.70;84.00;;;;;;5003369;28;20286;-74
2022/01/11 10:50:07;;;;;;;54.03;30.50;;;5.70;83.90;;;;;;5014579;28;20213;-74
2022/01/11 10:52:37;;;;;;;19.27;13.40;;;5.70;84.10;;;;;;4998751;28;20704;-74
2022/01/11 10:55:15;;;;;;;20.25;13.40;;;5.70;84.00;;;;;;5007251;28;20214;-74
2022/01/11 10:57:49;;;;;;;19.30;13.45;;;5.70;84.00;;;;;;5015837;28;20938;-74
2022/01/11 11:00:26;;;;;;;23.05;14.35;;;5.70;84.10;;;;;;5011119;28;20206;-74
2022/01/11 11:03:01;;;;;;;20.45;12.80;;;5.70;84.20;;;;;;5016596;28;20261;-74
2022/01/11 11:05:33;;;;;;;19.75;12.77;;;5.70;84.20;;;;;;4995290;28;20212;-74
2022/01/11 11:08:13;;;;;;;29.38;17.10;;;5.70;84.10;;;;;;4998586;28;20225;-74
2022/01/11 11:10:49;;;;;;;31.13;18.05;;;5.70;84.00;;;;;;4998134;28;20618;-74
2022/01/11 11:13:21;;;;;;;39.00;22.85;;;5.70;84.10;;;;;;4999684;28;20201;-74
2022/01/11 11:15:51;;;;;;;23.90;14.20;;;5.70;84.20;;;;;;5002717;28;21062;-74
2022/01/11 11:18:39;;;;;;;16.70;10.48;;;5.70;84.20;;;;;;5014030;28;20216;-74
2022/01/11 11:21:21;;;;;;;16.23;10.52;;;5.70;84.10;;;;;;5000646;28;20296;-74
2022/01/11 11:23:56;;;;;;;23.33;14.13;;;5.70;84.20;;;;;;4998075;28;20287;-74
2022/01/11 11:26:26;;;;;;;21.75;12.82;;;5.70;84.20;;;;;;5012075;28;20433;-74
2022/01/11 11:28:54;;;;;;;20.23;12.52;;;5.70;84.20;;;;;;5013731;28;20209;-74
2022/01/11 11:31:24;;;;;;;22.95;16.30;;;5.70;84.30;;;;;;5015093;28;20816;-74
2022/01/11 11:33:52;;;;;;;23.90;15.63;;;5.80;84.30;;;;;;4994867;28;20218;-74
2022/01/11 11:36:20;;;;;;;28.70;18.05;;;5.80;84.30;;;;;;5000694;28;20221;-74
2022/01/11 11:38:56;;;;;;;16.27;9.82;;;5.80;84.30;;;;;;5019504;28;20209;-74
2022/01/11 11:41:25;;;;;;;15.43;9.60;;;5.80;84.30;;;;;;5016162;28;20223;-74
2022/01/11 11:44:08;;;;;;;19.27;11.75;;;5.80;84.10;;;;;;5012282;28;20255;-74
2022/01/11 11:46:43;;;;;;;23.45;14.35;;;5.90;84.20;;;;;;5013688;28;20249;-74
2022/01/11 11:49:11;;;;;;;75.20;42.30;;;5.90;84.20;;;;;;5008412;28;20224;-75
2022/01/11 11:51:40;;;;;;;27.83;16.13;;;5.90;84.10;;;;;;5007023;28;20200;-74
2022/01/11 11:54:12;;;;;;;25.05;14.00;;;5.90;84.20;;;;;;4993548;28;20208;-74
2022/01/11 11:56:44;;;;;;;16.25;10.07;;;6.00;84.20;;;;;;5009292;28;20229;-74
2022/01/11 11:59:12;;;;;;;13.63;9.10;;;6.00;83.80;;;;;;5012186;28;20202;-75
2022/01/11 12:01:44;;;;;;;13.85;7.63;;;6.00;83.80;;;;;;5013761;28;20224;-74
2022/01/11 12:04:16;;;;;;;15.25;9.60;;;6.00;83.90;;;;;;5013471;28;20207;-74
2022/01/11 12:06:45;;;;;;;17.83;11.85;;;6.00;83.90;;;;;;5005251;28;20235;-73
2022/01/11 12:09:16;;;;;;;12.77;7.85;;;6.10;83.90;;;;;;4994257;28;20205;-74
2022/01/11 12:11:47;;;;;;;25.15;14.25;;;6.10;83.70;;;;;;5013131;28;20205;-74
2022/01/11 12:14:36;;;;;;;31.75;17.42;;;6.10;83.50;;;;;;5010990;28;20198;-74
2022/01/11 12:17:23;;;;;;;13.30;8.00;;;6.10;83.50;;;;;;4993069;28;20234;-74
2022/01/11 12:19:53;;;;;;;18.05;12.00;;;6.10;83.40;;;;;;5019693;28;20259;-74
2022/01/11 12:22:30;;;;;;;31.73;17.40;;;6.10;83.50;;;;;;5015989;28;20240;-74
2022/01/11 12:25:03;;;;;;;29.05;14.05;;;6.00;82.80;;;;;;4998031;28;20227;-74
2022/01/11 12:27:51;;;;;;;31.27;16.13;;;6.00;82.90;;;;;;5001687;28;20230;-74
2022/01/11 12:30:19;;;;;;;35.17;15.77;;;6.00;83.20;;;;;;5015296;28;20579;-74
2022/01/11 12:33:12;;;;;;;30.08;13.07;;;6.00;83.30;;;;;;5012468;28;20187;-74
2022/01/11 12:36:00;;;;;;;32.63;14.73;;;6.00;83.10;;;;;;5011073;28;20209;-74
2022/01/11 12:38:33;;;;;;;29.98;14.70;;;6.00;83.10;;;;;;4994947;28;20210;-74
2022/01/11 12:41:30;;;;;;;16.10;7.55;;;6.00;82.80;;;;;;5011640;28;20264;-74
2022/01/11 12:44:22;;;;;;;38.05;17.92;;;6.00;83.20;;;;;;5016418;28;20198;-74
2022/01/11 12:46:52;;;;;;;29.13;15.65;;;6.10;83.20;;;;;;5012522;28;20232;-74
2022/01/11 12:49:21;;;;;;;30.55;17.45;;;6.10;83.10;;;;;;5013390;28;20258;-74
2022/01/11 12:51:52;;;;;;;12.75;7.63;;;6.10;82.90;;;;;;4998454;28;20644;-74
2022/01/11 12:54:29;;;;;;;11.73;6.90;;;6.10;82.70;;;;;;4996941;28;20210;-74
2022/01/11 12:57:01;;;;;;;9.25;5.88;;;6.10;82.60;;;;;;5012149;28;20225;-74
2022/01/11 12:59:33;;;;;;;10.45;6.40;;;6.10;82.70;;;;;;5014083;28;20213;-74